sensor_id;sensor_type;location;lat;lon;timestamp;temperature;humidity
33095;DHT22;19459;53.044;8.910;2023-03-19T00:00:13;9.20;99.90
33095;DHT22;19459;53.044;8.910;2023-03-19T00:02:39;9.30;99.90
33095;DHT22;19459;53.044;8.910;2023-03-19T00:05:05;9.30;99.90
33095;DHT22;19459;53.044;8.910;2023-03-19T00:07:31;9.30;99.90
33095;DHT22;19459;53.044;8.910;2023-03-19T00:09:57;9.30;99.90
33095;DHT22;19459;53.044;8.910;2023-03-19T00:12:23;9.30;99.90
33095;DHT22;19459;53.044;8.910;2023-03-19T00:14:48;9.20;99.90
33095;DHT22;19459;53.044;8.910;2023-03-19T00:17:14;9.20;99.90
33095;DHT22;19459;53.044;8.910;2023-03-19T00:19:43;9.30;99.90
33095;DHT22;19459;53.044;8.910;2023-03-19T00:22:09;9.20;99.90
33095;DHT22;19459;53.044;8.910;2023-03-19T00:24:34;9.30;99.90
33095;DHT22;19459;53.044;8.910;2023-03-19T00:27:00;9.30;99.90
33095;DHT22;19459;53.044;8.910;2023-03-19T00:29:28;9.30;99.90
33095;DHT22;19459;53.044;8.910;2023-03-19T00:31:53;9.30;99.90
33095;DHT22;19459;53.044;8.910;2023-03-19T00:34:19;9.20;99.90
33095;DHT22;19459;53.044;8.910;2023-03-19T00:36:45;9.20;99.90
33095;DHT22;19459;53.044;8.910;2023-03-19T00:39:12;9.20;99.90
33095;DHT22;19459;53.044;8.910;2023-03-19T00:41:38;9.20;99.90
33095;DHT22;19459;53.044;8.910;2023-03-19T00:44:04;9.20;99.90
33095;DHT22;19459;53.044;8.910;2023-03-19T00:46:31;9.20;99.90
33095;DHT22;19459;53.044;8.910;2023-03-19T00:48:57;9.20;99.90
33095;DHT22;19459;53.044;8.910;2023-03-19T00:51:23;9.20;99.90
33095;DHT22;19459;53.044;8.910;2023-03-19T00:53:50;9.30;99.90
33095;DHT22;19459;53.044;8.910;2023-03-19T00:56:17;9.30;99.90
33095;DHT22;19459;53.044;8.910;2023-03-19T00:58:44;9.30;99.90
33095;DHT22;19459;53.044;8.910;2023-03-19T01:01:11;9.30;99.90
33095;DHT22;19459;53.044;8.910;2023-03-19T01:03:39;9.30;99.90
33095;DHT22;19459;53.044;8.910;2023-03-19T01:06:05;9.30;99.90
33095;DHT22;19459;53.044;8.910;2023-03-19T01:08:31;9.30;99.90
33095;DHT22;19459;53.044;8.910;2023-03-19T01:11:07;9.30;99.90
33095;DHT22;19459;53.044;8.910;2023-03-19T01:13:35;9.30;99.90
33095;DHT22;19459;53.044;8.910;2023-03-19T01:16:01;9.20;99.90
33095;DHT22;19459;53.044;8.910;2023-03-19T01:18:27;9.30;99.90
33095;DHT22;19459;53.044;8.910;2023-03-19T01:20:53;9.20;99.90
33095;DHT22;19459;53.044;8.910;2023-03-19T01:23:18;9.10;99.90
33095;DHT22;19459;53.044;8.910;2023-03-19T01:25:44;9.10;99.90
33095;DHT22;19459;53.044;8.910;2023-03-19T01:28:10;9.10;99.90
33095;DHT22;19459;53.044;8.910;2023-03-19T01:30:37;9.10;99.90
33095;DHT22;19459;53.044;8.910;2023-03-19T01:33:04;9.10;99.90
33095;DHT22;19459;53.044;8.910;2023-03-19T01:35:30;9.10;99.90
33095;DHT22;19459;53.044;8.910;2023-03-19T01:37:56;9.00;99.90
33095;DHT22;19459;53.044;8.910;2023-03-19T01:40:22;9.00;99.90
33095;DHT22;19459;53.044;8.910;2023-03-19T01:42:53;9.00;99.90
33095;DHT22;19459;53.044;8.910;2023-03-19T01:45:40;9.00;99.90
33095;DHT22;19459;53.044;8.910;2023-03-19T01:50:50;9.00;99.90
33095;DHT22;19459;53.044;8.910;2023-03-19T01:53:24;9.00;99.90
33095;DHT22;19459;53.044;8.910;2023-03-19T01:55:54;9.00;99.90
33095;DHT22;19459;53.044;8.910;2023-03-19T01:58:22;9.00;99.90
33095;DHT22;19459;53.044;8.910;2023-03-19T02:00:48;8.90;99.90
33095;DHT22;19459;53.044;8.910;2023-03-19T02:03:15;8.90;99.90
33095;DHT22;19459;53.044;8.910;2023-03-19T02:05:41;8.80;99.90
33095;DHT22;19459;53.044;8.910;2023-03-19T02:08:13;8.80;99.90
33095;DHT22;19459;53.044;8.910;2023-03-19T02:10:41;8.80;99.90
33095;DHT22;19459;53.044;8.910;2023-03-19T02:13:08;8.80;99.90
33095;DHT22;19459;53.044;8.910;2023-03-19T02:15:34;8.80;99.90
33095;DHT22;19459;53.044;8.910;2023-03-19T02:18:00;8.80;99.90
33095;DHT22;19459;53.044;8.910;2023-03-19T02:26:15;8.70;99.90
33095;DHT22;19459;53.044;8.910;2023-03-19T02:28:45;8.70;99.90
33095;DHT22;19459;53.044;8.910;2023-03-19T02:31:12;8.70;99.90
33095;DHT22;19459;53.044;8.910;2023-03-19T02:33:39;8.80;99.90
33095;DHT22;19459;53.044;8.910;2023-03-19T02:36:09;8.80;99.90
33095;DHT22;19459;53.044;8.910;2023-03-19T02:38:39;8.80;99.90
33095;DHT22;19459;53.044;8.910;2023-03-19T02:41:08;8.70;99.90
33095;DHT22;19459;53.044;8.910;2023-03-19T02:43:36;8.70;99.90
33095;DHT22;19459;53.044;8.910;2023-03-19T02:46:11;8.70;99.90
33095;DHT22;19459;53.044;8.910;2023-03-19T02:48:38;8.80;99.90
33095;DHT22;19459;53.044;8.910;2023-03-19T02:51:04;8.80;99.90
33095;DHT22;19459;53.044;8.910;2023-03-19T02:53:30;8.80;99.90
33095;DHT22;19459;53.044;8.910;2023-03-19T02:55:56;8.80;99.90
33095;DHT22;19459;53.044;8.910;2023-03-19T02:58:21;8.80;99.90
33095;DHT22;19459;53.044;8.910;2023-03-19T03:00:47;8.80;99.90
33095;DHT22;19459;53.044;8.910;2023-03-19T03:03:13;8.80;99.90
33095;DHT22;19459;53.044;8.910;2023-03-19T03:05:39;8.80;99.90
33095;DHT22;19459;53.044;8.910;2023-03-19T03:08:05;8.80;99.90
33095;DHT22;19459;53.044;8.910;2023-03-19T03:10:32;8.90;99.90
33095;DHT22;19459;53.044;8.910;2023-03-19T03:12:58;8.80;99.90
33095;DHT22;19459;53.044;8.910;2023-03-19T03:15:24;8.80;99.90
33095;DHT22;19459;53.044;8.910;2023-03-19T03:17:50;8.80;99.90
33095;DHT22;19459;53.044;8.910;2023-03-19T03:20:17;8.80;99.90
33095;DHT22;19459;53.044;8.910;2023-03-19T03:22:44;8.80;99.90
33095;DHT22;19459;53.044;8.910;2023-03-19T03:25:11;8.80;99.90
33095;DHT22;19459;53.044;8.910;2023-03-19T03:27:37;8.80;99.90
33095;DHT22;19459;53.044;8.910;2023-03-19T03:30:08;8.70;99.90
33095;DHT22;19459;53.044;8.910;2023-03-19T03:32:36;8.70;99.90
33095;DHT22;19459;53.044;8.910;2023-03-19T03:35:03;8.70;99.90
33095;DHT22;19459;53.044;8.910;2023-03-19T03:37:30;8.70;99.90
33095;DHT22;19459;53.044;8.910;2023-03-19T03:39:56;8.60;99.90
33095;DHT22;19459;53.044;8.910;2023-03-19T03:42:22;8.60;99.90
33095;DHT22;19459;53.044;8.910;2023-03-19T03:44:48;8.60;99.90
33095;DHT22;19459;53.044;8.910;2023-03-19T03:47:14;8.50;99.90
33095;DHT22;19459;53.044;8.910;2023-03-19T03:49:40;8.60;99.90
33095;DHT22;19459;53.044;8.910;2023-03-19T03:52:06;8.60;99.90
33095;DHT22;19459;53.044;8.910;2023-03-19T03:54:33;8.60;99.90
33095;DHT22;19459;53.044;8.910;2023-03-19T03:56:59;8.60;99.90
33095;DHT22;19459;53.044;8.910;2023-03-19T03:59:25;8.60;99.90
33095;DHT22;19459;53.044;8.910;2023-03-19T04:01:51;8.60;99.90
33095;DHT22;19459;53.044;8.910;2023-03-19T04:04:17;8.60;99.90
33095;DHT22;19459;53.044;8.910;2023-03-19T04:06:44;8.60;99.90
33095;DHT22;19459;53.044;8.910;2023-03-19T04:09:10;8.70;99.90
33095;DHT22;19459;53.044;8.910;2023-03-19T04:11:38;8.70;99.90
33095;DHT22;19459;53.044;8.910;2023-03-19T04:14:05;8.70;99.90
33095;DHT22;19459;53.044;8.910;2023-03-19T04:16:32;8.70;99.90
33095;DHT22;19459;53.044;8.910;2023-03-19T04:18:58;8.70;99.90
33095;DHT22;19459;53.044;8.910;2023-03-19T04:21:24;8.80;99.90
33095;DHT22;19459;53.044;8.910;2023-03-19T04:23:50;8.80;99.90
33095;DHT22;19459;53.044;8.910;2023-03-19T04:26:16;8.80;99.90
33095;DHT22;19459;53.044;8.910;2023-03-19T04:28:42;8.80;99.90
33095;DHT22;19459;53.044;8.910;2023-03-19T04:31:08;8.80;99.90
33095;DHT22;19459;53.044;8.910;2023-03-19T04:33:35;8.80;99.90
33095;DHT22;19459;53.044;8.910;2023-03-19T04:36:02;8.80;99.90
33095;DHT22;19459;53.044;8.910;2023-03-19T04:38:28;8.90;99.90
33095;DHT22;19459;53.044;8.910;2023-03-19T04:40:54;8.90;99.90
33095;DHT22;19459;53.044;8.910;2023-03-19T04:43:21;8.90;99.90
33095;DHT22;19459;53.044;8.910;2023-03-19T04:45:48;8.90;99.90
33095;DHT22;19459;53.044;8.910;2023-03-19T04:48:14;8.90;99.90
33095;DHT22;19459;53.044;8.910;2023-03-19T04:50:40;8.90;99.90
33095;DHT22;19459;53.044;8.910;2023-03-19T04:53:06;8.90;99.90
33095;DHT22;19459;53.044;8.910;2023-03-19T04:55:32;9.00;99.90
33095;DHT22;19459;53.044;8.910;2023-03-19T04:57:58;9.00;99.90
33095;DHT22;19459;53.044;8.910;2023-03-19T05:00:25;9.00;99.90
33095;DHT22;19459;53.044;8.910;2023-03-19T05:02:50;9.00;99.90
33095;DHT22;19459;53.044;8.910;2023-03-19T05:05:16;9.00;99.90
33095;DHT22;19459;53.044;8.910;2023-03-19T05:07:43;9.00;99.90
33095;DHT22;19459;53.044;8.910;2023-03-19T05:10:09;9.00;99.90
33095;DHT22;19459;53.044;8.910;2023-03-19T05:12:35;9.00;99.90
33095;DHT22;19459;53.044;8.910;2023-03-19T05:15:02;9.00;99.90
33095;DHT22;19459;53.044;8.910;2023-03-19T05:17:29;9.00;99.90
33095;DHT22;19459;53.044;8.910;2023-03-19T05:19:56;9.00;99.90
33095;DHT22;19459;53.044;8.910;2023-03-19T05:22:22;9.00;99.90
33095;DHT22;19459;53.044;8.910;2023-03-19T05:24:48;9.00;99.90
33095;DHT22;19459;53.044;8.910;2023-03-19T05:27:14;9.00;99.90
33095;DHT22;19459;53.044;8.910;2023-03-19T05:29:40;9.00;99.90
33095;DHT22;19459;53.044;8.910;2023-03-19T05:32:07;9.00;99.90
33095;DHT22;19459;53.044;8.910;2023-03-19T05:34:35;8.90;99.90
33095;DHT22;19459;53.044;8.910;2023-03-19T05:37:00;8.90;99.90
33095;DHT22;19459;53.044;8.910;2023-03-19T05:39:26;8.90;99.90
33095;DHT22;19459;53.044;8.910;2023-03-19T05:41:52;8.90;99.90
33095;DHT22;19459;53.044;8.910;2023-03-19T05:44:18;8.90;99.90
33095;DHT22;19459;53.044;8.910;2023-03-19T05:46:44;8.90;99.90
33095;DHT22;19459;53.044;8.910;2023-03-19T05:49:10;8.90;99.90
33095;DHT22;19459;53.044;8.910;2023-03-19T05:51:36;8.90;99.90
33095;DHT22;19459;53.044;8.910;2023-03-19T05:54:03;8.90;99.90
33095;DHT22;19459;53.044;8.910;2023-03-19T05:56:29;8.80;99.90
33095;DHT22;19459;53.044;8.910;2023-03-19T05:58:55;8.80;99.90
33095;DHT22;19459;53.044;8.910;2023-03-19T06:01:21;8.80;99.90
33095;DHT22;19459;53.044;8.910;2023-03-19T06:03:47;8.80;99.90
33095;DHT22;19459;53.044;8.910;2023-03-19T06:06:13;8.80;99.90
33095;DHT22;19459;53.044;8.910;2023-03-19T06:08:39;8.90;99.90
33095;DHT22;19459;53.044;8.910;2023-03-19T06:11:04;8.90;99.90
33095;DHT22;19459;53.044;8.910;2023-03-19T06:13:31;8.90;99.90
33095;DHT22;19459;53.044;8.910;2023-03-19T06:15:57;8.90;99.90
33095;DHT22;19459;53.044;8.910;2023-03-19T06:18:23;9.00;99.90
33095;DHT22;19459;53.044;8.910;2023-03-19T06:20:49;9.00;99.90
33095;DHT22;19459;53.044;8.910;2023-03-19T06:23:15;9.00;99.90
33095;DHT22;19459;53.044;8.910;2023-03-19T06:25:41;9.00;99.90
33095;DHT22;19459;53.044;8.910;2023-03-19T06:28:06;9.00;99.90
33095;DHT22;19459;53.044;8.910;2023-03-19T06:30:33;9.00;99.90
33095;DHT22;19459;53.044;8.910;2023-03-19T06:32:59;9.10;99.90
33095;DHT22;19459;53.044;8.910;2023-03-19T06:35:25;9.10;99.90
33095;DHT22;19459;53.044;8.910;2023-03-19T06:37:51;9.20;99.90
33095;DHT22;19459;53.044;8.910;2023-03-19T06:40:17;9.30;99.90
33095;DHT22;19459;53.044;8.910;2023-03-19T06:42:45;9.40;99.90
33095;DHT22;19459;53.044;8.910;2023-03-19T06:45:12;9.50;99.90
33095;DHT22;19459;53.044;8.910;2023-03-19T06:47:41;9.60;99.90
33095;DHT22;19459;53.044;8.910;2023-03-19T06:50:12;9.80;99.90
33095;DHT22;19459;53.044;8.910;2023-03-19T06:52:40;9.80;99.90
33095;DHT22;19459;53.044;8.910;2023-03-19T06:55:07;9.90;99.90
33095;DHT22;19459;53.044;8.910;2023-03-19T06:57:34;9.90;99.90
33095;DHT22;19459;53.044;8.910;2023-03-19T07:00:00;9.90;99.90
33095;DHT22;19459;53.044;8.910;2023-03-19T07:02:26;10.00;99.90
33095;DHT22;19459;53.044;8.910;2023-03-19T07:04:52;10.00;99.90
33095;DHT22;19459;53.044;8.910;2023-03-19T07:07:18;10.10;99.90
33095;DHT22;19459;53.044;8.910;2023-03-19T07:09:44;10.10;99.90
33095;DHT22;19459;53.044;8.910;2023-03-19T07:12:10;10.10;99.90
33095;DHT22;19459;53.044;8.910;2023-03-19T07:14:36;10.20;99.90
33095;DHT22;19459;53.044;8.910;2023-03-19T07:17:02;10.20;99.90
33095;DHT22;19459;53.044;8.910;2023-03-19T07:19:28;10.20;99.90
33095;DHT22;19459;53.044;8.910;2023-03-19T07:21:57;10.20;99.90
33095;DHT22;19459;53.044;8.910;2023-03-19T07:24:23;10.10;99.90
33095;DHT22;19459;53.044;8.910;2023-03-19T07:26:48;10.10;99.90
33095;DHT22;19459;53.044;8.910;2023-03-19T07:29:14;10.10;99.90
33095;DHT22;19459;53.044;8.910;2023-03-19T07:31:41;10.10;99.90
33095;DHT22;19459;53.044;8.910;2023-03-19T07:34:07;10.10;99.90
33095;DHT22;19459;53.044;8.910;2023-03-19T07:36:33;10.10;99.90
33095;DHT22;19459;53.044;8.910;2023-03-19T07:38:59;10.20;99.90
33095;DHT22;19459;53.044;8.910;2023-03-19T07:41:24;10.20;99.90
33095;DHT22;19459;53.044;8.910;2023-03-19T07:43:50;10.20;99.90
33095;DHT22;19459;53.044;8.910;2023-03-19T07:46:16;10.20;99.90
33095;DHT22;19459;53.044;8.910;2023-03-19T07:48:42;10.30;99.90
33095;DHT22;19459;53.044;8.910;2023-03-19T07:51:08;10.30;99.90
33095;DHT22;19459;53.044;8.910;2023-03-19T07:53:34;10.30;99.90
33095;DHT22;19459;53.044;8.910;2023-03-19T07:56:00;10.40;99.90
33095;DHT22;19459;53.044;8.910;2023-03-19T07:58:25;10.40;99.90
33095;DHT22;19459;53.044;8.910;2023-03-19T08:00:52;10.50;99.90
33095;DHT22;19459;53.044;8.910;2023-03-19T08:03:18;10.60;99.90
33095;DHT22;19459;53.044;8.910;2023-03-19T08:05:46;10.70;99.90
33095;DHT22;19459;53.044;8.910;2023-03-19T08:08:12;10.80;99.90
33095;DHT22;19459;53.044;8.910;2023-03-19T08:10:39;10.80;99.90
33095;DHT22;19459;53.044;8.910;2023-03-19T08:13:05;10.90;99.90
33095;DHT22;19459;53.044;8.910;2023-03-19T08:15:31;11.00;99.90
33095;DHT22;19459;53.044;8.910;2023-03-19T08:17:58;11.00;99.90
33095;DHT22;19459;53.044;8.910;2023-03-19T08:20:26;11.10;99.90
33095;DHT22;19459;53.044;8.910;2023-03-19T08:22:52;11.20;99.90
33095;DHT22;19459;53.044;8.910;2023-03-19T08:25:17;11.20;99.90
33095;DHT22;19459;53.044;8.910;2023-03-19T08:27:44;11.30;99.90
33095;DHT22;19459;53.044;8.910;2023-03-19T08:30:10;11.40;99.90
33095;DHT22;19459;53.044;8.910;2023-03-19T08:32:37;11.50;99.90
33095;DHT22;19459;53.044;8.910;2023-03-19T08:35:03;11.50;99.90
33095;DHT22;19459;53.044;8.910;2023-03-19T08:37:30;11.60;99.90
33095;DHT22;19459;53.044;8.910;2023-03-19T08:39:56;11.70;99.90
33095;DHT22;19459;53.044;8.910;2023-03-19T08:42:22;11.80;99.90
33095;DHT22;19459;53.044;8.910;2023-03-19T08:44:49;11.80;99.90
33095;DHT22;19459;53.044;8.910;2023-03-19T08:47:15;11.90;99.90
33095;DHT22;19459;53.044;8.910;2023-03-19T08:49:41;12.00;99.90
33095;DHT22;19459;53.044;8.910;2023-03-19T08:52:07;12.00;99.90
33095;DHT22;19459;53.044;8.910;2023-03-19T08:54:33;12.10;99.90
33095;DHT22;19459;53.044;8.910;2023-03-19T08:57:01;12.20;99.90
33095;DHT22;19459;53.044;8.910;2023-03-19T08:59:27;12.30;99.90
33095;DHT22;19459;53.044;8.910;2023-03-19T09:01:53;12.30;99.90
33095;DHT22;19459;53.044;8.910;2023-03-19T09:04:20;12.30;99.90
33095;DHT22;19459;53.044;8.910;2023-03-19T09:06:46;12.40;99.90
33095;DHT22;19459;53.044;8.910;2023-03-19T09:09:20;12.50;99.90
33095;DHT22;19459;53.044;8.910;2023-03-19T09:11:48;12.60;99.90
33095;DHT22;19459;53.044;8.910;2023-03-19T09:14:14;12.70;99.90
33095;DHT22;19459;53.044;8.910;2023-03-19T09:16:45;12.90;99.90
33095;DHT22;19459;53.044;8.910;2023-03-19T09:19:11;13.10;99.90
33095;DHT22;19459;53.044;8.910;2023-03-19T09:21:36;13.30;99.90
33095;DHT22;19459;53.044;8.910;2023-03-19T09:24:03;13.50;99.90
33095;DHT22;19459;53.044;8.910;2023-03-19T09:26:32;13.70;99.90
33095;DHT22;19459;53.044;8.910;2023-03-19T09:29:01;13.80;99.90
33095;DHT22;19459;53.044;8.910;2023-03-19T09:31:30;13.80;99.90
33095;DHT22;19459;53.044;8.910;2023-03-19T09:34:01;13.80;99.90
33095;DHT22;19459;53.044;8.910;2023-03-19T09:36:31;14.00;99.90
33095;DHT22;19459;53.044;8.910;2023-03-19T09:38:57;14.20;99.90
33095;DHT22;19459;53.044;8.910;2023-03-19T09:46:53;14.20;99.90
33095;DHT22;19459;53.044;8.910;2023-03-19T09:49:27;14.20;99.90
33095;DHT22;19459;53.044;8.910;2023-03-19T09:52:29;14.20;99.90
33095;DHT22;19459;53.044;8.910;2023-03-19T09:57:51;14.00;99.90
33095;DHT22;19459;53.044;8.910;2023-03-19T10:00:22;14.10;99.90
33095;DHT22;19459;53.044;8.910;2023-03-19T10:17:30;14.60;99.90
33095;DHT22;19459;53.044;8.910;2023-03-19T10:22:49;15.10;99.90
33095;DHT22;19459;53.044;8.910;2023-03-19T10:25:25;15.20;99.90
33095;DHT22;19459;53.044;8.910;2023-03-19T10:27:59;15.00;99.90
33095;DHT22;19459;53.044;8.910;2023-03-19T10:30:26;14.90;99.90
33095;DHT22;19459;53.044;8.910;2023-03-19T10:33:06;14.80;99.90
33095;DHT22;19459;53.044;8.910;2023-03-19T10:35:44;14.90;99.90
33095;DHT22;19459;53.044;8.910;2023-03-19T10:38:21;14.90;99.90
33095;DHT22;19459;53.044;8.910;2023-03-19T10:43:52;14.80;99.90
33095;DHT22;19459;53.044;8.910;2023-03-19T10:46:22;14.80;99.90
33095;DHT22;19459;53.044;8.910;2023-03-19T10:48:48;14.70;99.90
33095;DHT22;19459;53.044;8.910;2023-03-19T10:51:23;14.80;99.90
33095;DHT22;19459;53.044;8.910;2023-03-19T10:53:52;14.80;99.90
33095;DHT22;19459;53.044;8.910;2023-03-19T10:56:28;14.80;99.90
33095;DHT22;19459;53.044;8.910;2023-03-19T10:59:04;14.80;99.90
33095;DHT22;19459;53.044;8.910;2023-03-19T11:01:39;14.80;99.90
33095;DHT22;19459;53.044;8.910;2023-03-19T11:04:31;14.80;99.90
33095;DHT22;19459;53.044;8.910;2023-03-19T11:07:12;14.80;99.90
33095;DHT22;19459;53.044;8.910;2023-03-19T11:09:42;14.90;99.90
33095;DHT22;19459;53.044;8.910;2023-03-19T11:12:25;14.70;99.90
33095;DHT22;19459;53.044;8.910;2023-03-19T11:14:59;14.70;99.90
33095;DHT22;19459;53.044;8.910;2023-03-19T11:17:45;14.70;99.90
33095;DHT22;19459;53.044;8.910;2023-03-19T11:20:29;14.50;99.90
33095;DHT22;19459;53.044;8.910;2023-03-19T11:22:59;14.50;99.90
33095;DHT22;19459;53.044;8.910;2023-03-19T11:25:30;14.60;99.90
33095;DHT22;19459;53.044;8.910;2023-03-19T11:28:15;14.50;99.90
33095;DHT22;19459;53.044;8.910;2023-03-19T11:36:24;14.20;99.90
33095;DHT22;19459;53.044;8.910;2023-03-19T11:41:58;14.20;99.90
33095;DHT22;19459;53.044;8.910;2023-03-19T11:54:37;14.30;99.90
33095;DHT22;19459;53.044;8.910;2023-03-19T11:57:09;14.40;99.90
33095;DHT22;19459;53.044;8.910;2023-03-19T12:12:25;14.30;99.90
33095;DHT22;19459;53.044;8.910;2023-03-19T12:20:41;14.10;99.90
33095;DHT22;19459;53.044;8.910;2023-03-19T12:24:09;14.10;99.90
33095;DHT22;19459;53.044;8.910;2023-03-19T12:26:51;14.00;99.90
33095;DHT22;19459;53.044;8.910;2023-03-19T12:32:35;13.80;99.90
33095;DHT22;19459;53.044;8.910;2023-03-19T12:35:16;13.40;99.90
33095;DHT22;19459;53.044;8.910;2023-03-19T12:37:48;13.20;99.90
33095;DHT22;19459;53.044;8.910;2023-03-19T12:43:28;12.90;99.90
33095;DHT22;19459;53.044;8.910;2023-03-19T12:46:44;12.90;99.90
33095;DHT22;19459;53.044;8.910;2023-03-19T12:49:17;13.00;99.90
33095;DHT22;19459;53.044;8.910;2023-03-19T12:51:52;13.50;99.90
33095;DHT22;19459;53.044;8.910;2023-03-19T12:54:40;13.90;99.90
33095;DHT22;19459;53.044;8.910;2023-03-19T13:00:41;14.30;99.90
33095;DHT22;19459;53.044;8.910;2023-03-19T13:03:32;14.50;99.90
33095;DHT22;19459;53.044;8.910;2023-03-19T13:06:17;14.70;99.90
33095;DHT22;19459;53.044;8.910;2023-03-19T13:09:00;14.50;99.90
33095;DHT22;19459;53.044;8.910;2023-03-19T13:11:43;14.50;99.90
33095;DHT22;19459;53.044;8.910;2023-03-19T13:19:53;14.50;99.90
33095;DHT22;19459;53.044;8.910;2023-03-19T13:22:26;14.60;99.90
33095;DHT22;19459;53.044;8.910;2023-03-19T13:24:54;14.60;99.90
33095;DHT22;19459;53.044;8.910;2023-03-19T13:27:34;14.70;99.90
33095;DHT22;19459;53.044;8.910;2023-03-19T13:32:40;15.00;99.90
33095;DHT22;19459;53.044;8.910;2023-03-19T13:35:24;15.50;99.90
33095;DHT22;19459;53.044;8.910;2023-03-19T13:38:17;15.40;99.90
33095;DHT22;19459;53.044;8.910;2023-03-19T13:40:54;16.20;99.90
33095;DHT22;19459;53.044;8.910;2023-03-19T13:59:27;16.60;99.90
33095;DHT22;19459;53.044;8.910;2023-03-19T14:01:55;16.60;99.90
33095;DHT22;19459;53.044;8.910;2023-03-19T14:04:39;17.20;99.90
33095;DHT22;19459;53.044;8.910;2023-03-19T14:07:16;17.70;99.90
33095;DHT22;19459;53.044;8.910;2023-03-19T14:10:01;17.50;99.90
33095;DHT22;19459;53.044;8.910;2023-03-19T14:12:32;17.30;99.90
33095;DHT22;19459;53.044;8.910;2023-03-19T14:17:37;17.30;99.90
33095;DHT22;19459;53.044;8.910;2023-03-19T14:23:40;18.00;99.90
33095;DHT22;19459;53.044;8.910;2023-03-19T14:29:04;17.20;99.90
33095;DHT22;19459;53.044;8.910;2023-03-19T14:31:47;17.30;99.90
33095;DHT22;19459;53.044;8.910;2023-03-19T14:39:32;16.90;99.90
33095;DHT22;19459;53.044;8.910;2023-03-19T14:42:18;17.20;99.90
33095;DHT22;19459;53.044;8.910;2023-03-19T14:53:55;17.80;99.90
33095;DHT22;19459;53.044;8.910;2023-03-19T14:56:26;17.80;99.90
33095;DHT22;19459;53.044;8.910;2023-03-19T14:58:57;17.60;99.90
33095;DHT22;19459;53.044;8.910;2023-03-19T15:01:30;17.30;99.90
33095;DHT22;19459;53.044;8.910;2023-03-19T15:04:03;17.40;99.90
33095;DHT22;19459;53.044;8.910;2023-03-19T15:06:42;17.50;99.90
33095;DHT22;19459;53.044;8.910;2023-03-19T15:09:28;17.40;99.90
33095;DHT22;19459;53.044;8.910;2023-03-19T15:17:39;16.80;99.90
33095;DHT22;19459;53.044;8.910;2023-03-19T15:20:21;16.80;99.90
33095;DHT22;19459;53.044;8.910;2023-03-19T15:22:59;16.80;99.90
33095;DHT22;19459;53.044;8.910;2023-03-19T15:25:26;16.90;99.90
33095;DHT22;19459;53.044;8.910;2023-03-19T15:28:18;17.10;99.90
33095;DHT22;19459;53.044;8.910;2023-03-19T15:30:52;17.20;99.90
33095;DHT22;19459;53.044;8.910;2023-03-19T15:33:23;17.20;99.90
33095;DHT22;19459;53.044;8.910;2023-03-19T15:36:28;17.20;99.90
33095;DHT22;19459;53.044;8.910;2023-03-19T15:39:05;17.00;99.90
33095;DHT22;19459;53.044;8.910;2023-03-19T15:41:36;16.80;99.90
33095;DHT22;19459;53.044;8.910;2023-03-19T15:44:07;16.80;99.90
33095;DHT22;19459;53.044;8.910;2023-03-19T15:46:37;16.80;99.90
33095;DHT22;19459;53.044;8.910;2023-03-19T15:49:14;16.90;99.90
33095;DHT22;19459;53.044;8.910;2023-03-19T15:51:45;16.70;99.90
33095;DHT22;19459;53.044;8.910;2023-03-19T15:54:16;16.60;99.90
33095;DHT22;19459;53.044;8.910;2023-03-19T15:56:42;16.40;99.90
33095;DHT22;19459;53.044;8.910;2023-03-19T15:59:09;16.20;99.90
33095;DHT22;19459;53.044;8.910;2023-03-19T16:01:36;16.10;99.90
33095;DHT22;19459;53.044;8.910;2023-03-19T16:04:05;16.00;99.90
33095;DHT22;19459;53.044;8.910;2023-03-19T16:06:37;16.00;99.90
33095;DHT22;19459;53.044;8.910;2023-03-19T16:09:26;16.00;99.90
33095;DHT22;19459;53.044;8.910;2023-03-19T16:11:58;15.90;99.90
33095;DHT22;19459;53.044;8.910;2023-03-19T16:14:40;15.80;99.90
33095;DHT22;19459;53.044;8.910;2023-03-19T16:17:16;15.80;99.90
33095;DHT22;19459;53.044;8.910;2023-03-19T16:19:52;15.60;99.90
33095;DHT22;19459;53.044;8.910;2023-03-19T16:22:28;15.60;99.90
33095;DHT22;19459;53.044;8.910;2023-03-19T16:24:56;15.40;99.90
33095;DHT22;19459;53.044;8.910;2023-03-19T16:27:33;15.40;99.90
33095;DHT22;19459;53.044;8.910;2023-03-19T16:30:00;15.40;99.90
33095;DHT22;19459;53.044;8.910;2023-03-19T16:32:27;15.30;99.90
33095;DHT22;19459;53.044;8.910;2023-03-19T16:42:38;15.00;99.90
33095;DHT22;19459;53.044;8.910;2023-03-19T16:45:25;14.90;99.90
33095;DHT22;19459;53.044;8.910;2023-03-19T16:47:57;14.90;99.90
33095;DHT22;19459;53.044;8.910;2023-03-19T16:50:36;14.80;99.90
33095;DHT22;19459;53.044;8.910;2023-03-19T16:56:00;14.60;99.90
33095;DHT22;19459;53.044;8.910;2023-03-19T16:58:35;14.60;99.90
33095;DHT22;19459;53.044;8.910;2023-03-19T17:03:41;14.40;99.90
33095;DHT22;19459;53.044;8.910;2023-03-19T17:06:10;14.30;99.90
33095;DHT22;19459;53.044;8.910;2023-03-19T17:08:36;14.20;99.90
33095;DHT22;19459;53.044;8.910;2023-03-19T17:11:19;14.20;99.90
33095;DHT22;19459;53.044;8.910;2023-03-19T17:13:48;14.10;99.90
33095;DHT22;19459;53.044;8.910;2023-03-19T17:16:16;14.00;99.90
33095;DHT22;19459;53.044;8.910;2023-03-19T17:18:42;13.90;99.90
33095;DHT22;19459;53.044;8.910;2023-03-19T17:21:35;13.90;99.90
33095;DHT22;19459;53.044;8.910;2023-03-19T17:26:51;13.70;99.90
33095;DHT22;19459;53.044;8.910;2023-03-19T17:29:18;13.60;99.90
33095;DHT22;19459;53.044;8.910;2023-03-19T17:31:45;13.50;99.90
33095;DHT22;19459;53.044;8.910;2023-03-19T17:34:17;13.50;99.90
33095;DHT22;19459;53.044;8.910;2023-03-19T17:36:57;13.40;99.90
33095;DHT22;19459;53.044;8.910;2023-03-19T17:39:25;13.30;99.90
33095;DHT22;19459;53.044;8.910;2023-03-19T17:41:54;13.20;99.90
33095;DHT22;19459;53.044;8.910;2023-03-19T17:44:20;13.10;99.90
33095;DHT22;19459;53.044;8.910;2023-03-19T17:46:49;13.00;99.90
33095;DHT22;19459;53.044;8.910;2023-03-19T17:49:28;12.90;99.90
33095;DHT22;19459;53.044;8.910;2023-03-19T17:51:57;12.80;99.90
33095;DHT22;19459;53.044;8.910;2023-03-19T17:54:23;12.70;99.90
33095;DHT22;19459;53.044;8.910;2023-03-19T17:56:51;12.50;99.90
33095;DHT22;19459;53.044;8.910;2023-03-19T17:59:21;12.50;99.90
33095;DHT22;19459;53.044;8.910;2023-03-19T18:01:47;12.30;99.90
33095;DHT22;19459;53.044;8.910;2023-03-19T18:04:18;12.20;99.90
33095;DHT22;19459;53.044;8.910;2023-03-19T18:06:48;12.10;99.90
33095;DHT22;19459;53.044;8.910;2023-03-19T18:09:23;12.00;99.90
33095;DHT22;19459;53.044;8.910;2023-03-19T18:11:51;11.90;99.90
33095;DHT22;19459;53.044;8.910;2023-03-19T18:14:18;11.80;99.90
33095;DHT22;19459;53.044;8.910;2023-03-19T18:16:44;11.70;99.90
33095;DHT22;19459;53.044;8.910;2023-03-19T18:19:31;11.60;99.90
33095;DHT22;19459;53.044;8.910;2023-03-19T18:22:01;11.50;99.90
33095;DHT22;19459;53.044;8.910;2023-03-19T18:24:27;11.40;99.90
33095;DHT22;19459;53.044;8.910;2023-03-19T18:26:53;11.30;99.90